createdAt,value
2023-02-03T00:00:09.948Z,23.53
2023-02-03T00:02:37.474Z,22.23
2023-02-03T00:05:04.946Z,24.60
2023-02-03T00:07:32.670Z,24.70
2023-02-03T00:09:59.859Z,19.47
2023-02-03T00:12:27.117Z,20.50
2023-02-03T00:14:54.425Z,19.70
2023-02-03T00:17:21.787Z,21.33
2023-02-03T00:19:50.115Z,20.77
2023-02-03T00:22:17.818Z,19.90
2023-02-03T00:24:45.038Z,17.73
2023-02-03T00:27:12.461Z,17.97
2023-02-03T00:29:39.695Z,29.20
2023-02-03T00:32:07.050Z,21.80
2023-02-03T00:34:34.345Z,16.57
2023-02-03T00:37:01.783Z,24.70
2023-02-03T00:39:29.193Z,24.63
2023-02-03T00:41:56.447Z,20.47
2023-02-03T00:44:23.717Z,20.57
2023-02-03T00:46:51.036Z,26.57
2023-02-03T00:49:18.399Z,31.87
2023-02-03T00:51:45.606Z,36.63
2023-02-03T00:54:13.680Z,39.83
2023-02-03T00:56:41.716Z,41.33
2023-02-03T00:59:08.996Z,41.00
2023-02-03T01:01:36.605Z,42.67
2023-02-03T01:04:04.348Z,33.77
2023-02-03T01:06:32.073Z,34.73
2023-02-03T01:08:59.692Z,29.80
2023-02-03T01:11:27.968Z,29.10
2023-02-03T01:13:56.282Z,28.93
2023-02-03T01:16:24.815Z,36.53
2023-02-03T01:18:52.872Z,37.87
2023-02-03T01:21:21.545Z,33.30
2023-02-03T01:23:49.137Z,31.73
2023-02-03T01:26:17.734Z,25.87
2023-02-03T01:28:45.355Z,24.10
2023-02-03T01:31:14.151Z,21.60
2023-02-03T01:33:41.767Z,28.23
2023-02-03T01:36:10.126Z,32.37
2023-02-03T01:38:37.995Z,34.83
2023-02-03T01:41:06.123Z,32.53
2023-02-03T01:43:35.011Z,29.83
2023-02-03T01:46:04.069Z,31.67
2023-02-03T01:48:32.872Z,27.17
2023-02-03T01:51:03.084Z,20.23
2023-02-03T01:53:30.469Z,26.83
2023-02-03T01:55:58.087Z,23.27
2023-02-03T01:58:30.844Z,24.47
2023-02-03T02:00:59.130Z,26.83
2023-02-03T02:03:30.818Z,22.13
2023-02-03T02:06:01.447Z,28.20
2023-02-03T02:08:29.347Z,25.90
2023-02-03T02:10:56.774Z,29.47
2023-02-03T02:13:24.253Z,26.67
2023-02-03T02:16:07.121Z,24.90
2023-02-03T02:18:53.163Z,27.90
2023-02-03T02:21:20.403Z,22.80
2023-02-03T02:24:19.785Z,25.83
2023-02-03T02:27:06.105Z,28.30
2023-02-03T02:29:36.461Z,23.83
2023-02-03T02:32:10.370Z,22.40
2023-02-03T02:34:40.613Z,22.10
2023-02-03T02:37:26.394Z,29.10
2023-02-03T02:39:59.252Z,26.17
2023-02-03T02:42:36.072Z,21.97
2023-02-03T02:45:08.876Z,28.50
2023-02-03T02:47:36.109Z,27.43
2023-02-03T02:50:09.842Z,24.83
2023-02-03T02:52:38.991Z,19.63
2023-02-03T02:55:08.809Z,18.20
2023-02-03T02:57:37.060Z,17.10
2023-02-03T03:00:05.601Z,15.50
2023-02-03T03:02:36.261Z,19.70
2023-02-03T03:05:05.690Z,13.83
2023-02-03T03:07:35.520Z,15.90
2023-02-03T03:10:07.310Z,17.07
2023-02-03T03:12:39.855Z,17.80
2023-02-03T03:15:12.986Z,15.70
2023-02-03T03:17:46.776Z,28.30
2023-02-03T03:20:16.739Z,16.83
2023-02-03T03:22:49.103Z,18.10
2023-02-03T03:25:21.360Z,18.90
2023-02-03T03:27:54.378Z,24.30
2023-02-03T03:30:24.004Z,18.37
2023-02-03T03:32:51.658Z,26.90
2023-02-03T03:35:19.785Z,27.77
2023-02-03T03:37:46.944Z,26.40
2023-02-03T03:40:19.709Z,28.70
2023-02-03T03:42:51.910Z,23.97
2023-02-03T03:45:29.826Z,22.73
2023-02-03T03:47:58.639Z,22.73
2023-02-03T03:50:31.283Z,22.17
2023-02-03T03:53:00.241Z,18.00
2023-02-03T03:55:29.766Z,20.70
2023-02-03T03:58:02.744Z,25.97
2023-02-03T04:00:31.467Z,25.37
2023-02-03T04:03:01.001Z,20.83
2023-02-03T04:05:28.773Z,32.43
2023-02-03T04:07:56.010Z,28.20
2023-02-03T04:10:28.381Z,23.03
2023-02-03T04:12:55.789Z,24.57
2023-02-03T04:15:23.124Z,23.93
2023-02-03T04:17:50.829Z,26.60
2023-02-03T04:20:18.439Z,20.83
2023-02-03T04:22:45.611Z,23.50
2023-02-03T04:25:12.854Z,20.50
2023-02-03T04:27:40.127Z,16.23
2023-02-03T04:30:08.198Z,18.33
2023-02-03T04:32:35.732Z,20.73
2023-02-03T04:35:04.112Z,21.33
2023-02-03T04:37:31.348Z,20.17
2023-02-03T04:39:58.599Z,22.57
2023-02-03T04:42:26.342Z,17.77
2023-02-03T04:44:53.677Z,17.03
2023-02-03T04:47:21.529Z,22.77
2023-02-03T04:49:48.740Z,23.67
2023-02-03T04:52:16.250Z,16.37
2023-02-03T04:54:43.539Z,24.27
2023-02-03T04:57:10.799Z,17.47
2023-02-03T04:59:37.971Z,19.40
2023-02-03T05:02:05.657Z,15.80
2023-02-03T05:04:33.203Z,24.67
2023-02-03T05:07:00.464Z,18.90
2023-02-03T05:09:27.724Z,16.50
2023-02-03T05:11:55.463Z,19.93
2023-02-03T05:14:22.778Z,21.50
2023-02-03T05:16:50.087Z,21.73
2023-02-03T05:19:17.537Z,19.90
2023-02-03T05:21:44.773Z,22.00
2023-02-03T05:24:12.024Z,22.10
2023-02-03T05:26:39.319Z,17.20
2023-02-03T05:29:06.614Z,19.57
2023-02-03T05:31:34.746Z,21.47
2023-02-03T05:34:02.293Z,20.13
2023-02-03T05:36:29.486Z,22.83
2023-02-03T05:38:56.713Z,18.97
2023-02-03T05:41:42.864Z,22.97
2023-02-03T05:44:10.215Z,19.10
2023-02-03T05:46:37.396Z,19.37
2023-02-03T05:49:04.646Z,27.70
2023-02-03T05:51:31.966Z,21.00
2023-02-03T05:53:59.204Z,19.27
2023-02-03T05:56:26.650Z,22.50
2023-02-03T05:58:53.933Z,20.63
2023-02-03T06:01:21.152Z,19.27
2023-02-03T06:03:49.322Z,17.00
2023-02-03T06:06:16.748Z,23.33
2023-02-03T06:08:44.465Z,21.80
2023-02-03T06:11:12.017Z,23.20
2023-02-03T06:13:39.835Z,26.77
2023-02-03T06:16:07.144Z,22.27
2023-02-03T06:18:34.324Z,21.37
2023-02-03T06:21:01.771Z,25.27
2023-02-03T06:23:29.061Z,22.87
2023-02-03T06:25:56.368Z,28.57
2023-02-03T06:28:23.695Z,35.20
2023-02-03T06:30:53.215Z,39.33
2023-02-03T06:33:21.106Z,31.90
2023-02-03T06:35:48.316Z,31.23
2023-02-03T06:38:15.590Z,35.17
2023-02-03T06:40:42.870Z,28.03
2023-02-03T06:43:10.150Z,33.37
2023-02-03T06:45:37.695Z,25.33
2023-02-03T06:48:04.986Z,29.40
2023-02-03T06:50:32.402Z,25.17
2023-02-03T06:52:59.619Z,29.60
2023-02-03T06:55:27.064Z,33.93
2023-02-03T06:57:54.315Z,35.07
2023-02-03T07:00:23.101Z,39.63
2023-02-03T07:02:57.559Z,37.73
2023-02-03T07:05:25.219Z,36.87
2023-02-03T07:07:53.252Z,42.03
2023-02-03T07:10:20.846Z,41.23
2023-02-03T07:12:48.121Z,32.77
2023-02-03T07:15:15.459Z,35.93
2023-02-03T07:17:42.666Z,36.80
2023-02-03T07:20:10.281Z,37.43
2023-02-03T07:22:38.853Z,34.37
2023-02-03T07:25:06.413Z,29.17
2023-02-03T07:27:33.667Z,35.57
2023-02-03T07:30:01.058Z,28.00
2023-02-03T07:32:28.247Z,33.60
2023-02-03T07:34:55.516Z,33.00
2023-02-03T07:37:22.838Z,31.40
2023-02-03T07:39:50.094Z,34.43
2023-02-03T07:42:17.351Z,33.03
2023-02-03T07:44:44.588Z,38.37
2023-02-03T07:47:12.670Z,35.50
2023-02-03T07:49:39.979Z,27.20
2023-02-03T07:52:07.366Z,27.63
2023-02-03T07:54:34.565Z,26.83
2023-02-03T07:57:02.372Z,29.60
2023-02-03T07:59:29.609Z,26.73
2023-02-03T08:01:56.949Z,24.03
2023-02-03T08:04:24.496Z,22.60
2023-02-03T08:06:52.115Z,20.13
2023-02-03T08:09:19.310Z,21.50
2023-02-03T08:11:46.545Z,21.83
2023-02-03T08:14:13.775Z,26.17
2023-02-03T08:16:41.132Z,23.67
2023-02-03T08:19:08.443Z,33.97
2023-02-03T08:21:35.873Z,21.83
2023-02-03T08:24:03.060Z,21.07
2023-02-03T08:26:30.257Z,23.03
2023-02-03T08:28:57.506Z,18.50
2023-02-03T08:31:24.791Z,23.77
2023-02-03T08:33:52.067Z,19.20
2023-02-03T08:36:19.404Z,19.43
2023-02-03T08:38:46.602Z,19.90
2023-02-03T08:41:15.515Z,21.50
2023-02-03T08:43:43.240Z,20.93
2023-02-03T08:46:11.324Z,20.03
2023-02-03T08:48:38.759Z,23.63
2023-02-03T08:51:13.623Z,25.90
2023-02-03T08:53:40.879Z,20.40
2023-02-03T08:56:09.269Z,20.80
2023-02-03T08:58:37.231Z,21.97
2023-02-03T09:01:11.820Z,19.67
2023-02-03T09:03:39.677Z,18.50
2023-02-03T09:06:08.089Z,19.57
2023-02-03T09:08:35.441Z,19.67
2023-02-03T09:11:02.702Z,20.27
2023-02-03T09:13:29.955Z,21.67
2023-02-03T09:16:00.637Z,16.33
2023-02-03T09:18:27.845Z,18.03
2023-02-03T09:21:01.563Z,19.63
2023-02-03T09:23:29.001Z,18.03
2023-02-03T09:25:56.194Z,17.63
2023-02-03T09:28:23.505Z,24.00
2023-02-03T09:30:50.832Z,20.30
2023-02-03T09:33:18.072Z,19.43
2023-02-03T09:35:52.556Z,22.63
2023-02-03T09:38:20.111Z,23.40
2023-02-03T09:40:52.263Z,20.37
2023-02-03T09:43:19.479Z,21.27
2023-02-03T09:45:46.709Z,23.27
2023-02-03T09:48:17.084Z,20.63
2023-02-03T09:50:45.101Z,20.20
2023-02-03T09:53:21.403Z,21.40
2023-02-03T09:55:49.037Z,22.30
2023-02-03T09:58:23.477Z,25.33
2023-02-03T10:00:52.172Z,21.57
2023-02-03T10:03:25.519Z,26.10
2023-02-03T10:05:55.745Z,24.00
2023-02-03T10:08:30.664Z,29.17
2023-02-03T10:11:16.607Z,27.10
2023-02-03T10:14:03.775Z,27.93
2023-02-03T10:16:42.739Z,30.43
2023-02-03T10:19:16.553Z,27.03
2023-02-03T10:21:45.668Z,29.93
2023-02-03T10:24:16.055Z,27.87
2023-02-03T10:26:43.441Z,24.13
2023-02-03T10:29:21.448Z,26.90
2023-02-03T10:31:49.356Z,30.80
2023-02-03T10:34:25.734Z,24.23
2023-02-03T10:36:57.063Z,27.00
2023-02-03T10:39:24.222Z,25.87
2023-02-03T10:41:51.747Z,23.83
2023-02-03T10:44:19.010Z,19.07
2023-02-03T10:46:46.227Z,20.03
2023-02-03T10:49:16.454Z,20.33
2023-02-03T10:51:51.531Z,19.70
2023-02-03T10:54:32.077Z,24.33
2023-02-03T10:57:03.730Z,34.83
2023-02-03T10:59:32.262Z,26.23
2023-02-03T11:02:00.022Z,21.53
2023-02-03T11:04:32.507Z,23.47
2023-02-03T11:07:03.800Z,25.53
2023-02-03T11:09:36.031Z,24.03
2023-02-03T11:12:13.133Z,25.47
2023-02-03T11:14:41.637Z,27.83
2023-02-03T11:17:09.600Z,26.93
2023-02-03T11:19:39.554Z,27.67
2023-02-03T11:22:07.139Z,26.37
2023-02-03T11:24:38.155Z,25.27
2023-02-03T11:27:07.315Z,25.43
2023-02-03T11:29:41.683Z,22.53
2023-02-03T11:32:29.409Z,23.60
2023-02-03T11:35:24.240Z,21.97
2023-02-03T11:37:56.256Z,19.03
2023-02-03T11:40:40.870Z,17.10
2023-02-03T11:43:18.156Z,19.50
2023-02-03T11:45:45.844Z,14.93
2023-02-03T11:48:32.143Z,16.13
2023-02-03T11:51:14.843Z,15.87
2023-02-03T11:53:56.565Z,14.30
2023-02-03T11:56:25.654Z,15.97
2023-02-03T11:59:00.610Z,13.87
2023-02-03T12:01:47.018Z,15.40
2023-02-03T12:04:17.315Z,11.83
2023-02-03T12:06:44.724Z,14.77
2023-02-03T12:09:17.895Z,15.63
2023-02-03T12:12:03.778Z,13.03
2023-02-03T12:14:46.320Z,12.60
2023-02-03T12:17:29.205Z,12.50
2023-02-03T12:20:14.807Z,13.50
2023-02-03T12:23:00.570Z,11.63
2023-02-03T12:25:34.353Z,10.17
2023-02-03T12:28:31.357Z,9.00
2023-02-03T12:31:12.972Z,8.77
2023-02-03T12:33:44.775Z,8.13
2023-02-03T12:36:33.928Z,8.77
2023-02-03T12:39:12.628Z,9.77
2023-02-03T12:41:43.445Z,5.87
2023-02-03T12:44:18.033Z,8.10
2023-02-03T12:46:50.121Z,10.47
2023-02-03T12:49:26.821Z,7.23
2023-02-03T12:52:00.798Z,8.63
2023-02-03T12:54:40.027Z,8.03
2023-02-03T12:57:22.616Z,9.50
2023-02-03T12:59:57.750Z,7.23
2023-02-03T13:02:30.366Z,8.73
2023-02-03T13:05:00.596Z,9.53
2023-02-03T13:07:37.156Z,10.97
2023-02-03T13:10:07.323Z,11.63
2023-02-03T13:12:37.689Z,10.53
2023-02-03T13:15:08.513Z,7.60
2023-02-03T13:17:40.585Z,11.00
2023-02-03T13:20:13.832Z,9.47
2023-02-03T13:22:41.076Z,11.77
2023-02-03T13:25:08.542Z,10.23
2023-02-03T13:28:02.177Z,9.87
2023-02-03T13:30:32.441Z,15.07
2023-02-03T13:33:02.759Z,11.67
2023-02-03T13:35:34.838Z,16.13
2023-02-03T13:38:02.378Z,9.33
2023-02-03T13:40:39.279Z,15.20
2023-02-03T13:43:11.372Z,13.37
2023-02-03T13:45:47.858Z,14.40
2023-02-03T13:48:15.080Z,18.20
2023-02-03T13:50:42.476Z,9.43
2023-02-03T13:53:21.325Z,7.73
2023-02-03T13:55:54.354Z,9.00
2023-02-03T13:58:23.403Z,9.13
2023-02-03T14:00:50.630Z,10.60
2023-02-03T14:03:19.749Z,5.53
2023-02-03T14:05:49.684Z,4.80
2023-02-03T14:08:26.174Z,8.10
2023-02-03T14:11:12.240Z,6.97
2023-02-03T14:13:39.469Z,8.50
2023-02-03T14:16:24.730Z,8.70
2023-02-03T14:18:52.379Z,9.13
2023-02-03T14:21:24.443Z,12.33
2023-02-03T14:23:55.896Z,15.70
2023-02-03T14:26:25.623Z,16.90
2023-02-03T14:28:54.041Z,17.70
2023-02-03T14:31:25.237Z,13.13
2023-02-03T14:34:00.025Z,14.93
2023-02-03T14:36:27.333Z,22.90
2023-02-03T14:38:56.164Z,12.50
2023-02-03T14:41:28.207Z,14.07
2023-02-03T14:44:02.742Z,14.67
2023-02-03T14:46:49.007Z,16.40
2023-02-03T14:49:16.167Z,16.77
2023-02-03T14:51:55.884Z,16.10
2023-02-03T14:54:33.608Z,21.33
2023-02-03T14:57:19.915Z,24.07
2023-02-03T14:59:55.362Z,30.13
2023-02-03T15:02:25.378Z,25.40
2023-02-03T15:04:53.663Z,30.97
2023-02-03T15:07:45.207Z,25.20
2023-02-03T15:10:30.672Z,23.90
2023-02-03T15:12:58.913Z,27.23
2023-02-03T15:15:28.014Z,26.13
2023-02-03T15:17:56.846Z,26.30
2023-02-03T15:20:30.232Z,22.73
2023-02-03T15:22:57.468Z,32.73
2023-02-03T15:25:26.158Z,28.27
2023-02-03T15:27:53.852Z,21.10
2023-02-03T15:30:24.127Z,18.70
2023-02-03T15:33:03.244Z,20.80
2023-02-03T15:35:32.067Z,19.80
2023-02-03T15:38:07.631Z,17.03
2023-02-03T15:40:41.883Z,17.97
2023-02-03T15:43:13.224Z,14.00
2023-02-03T15:46:03.783Z,19.70
2023-02-03T15:48:51.302Z,14.70
2023-02-03T15:51:21.540Z,13.13
2023-02-03T15:53:58.378Z,11.23
2023-02-03T15:56:36.575Z,11.97
2023-02-03T15:59:03.971Z,13.57
2023-02-03T16:01:31.795Z,19.70
2023-02-03T16:04:00.135Z,16.87
2023-02-03T16:06:39.918Z,14.37
2023-02-03T16:09:08.126Z,14.40
2023-02-03T16:11:36.729Z,15.70
2023-02-03T16:14:06.830Z,21.30
2023-02-03T16:17:04.488Z,26.47
2023-02-03T16:19:38.110Z,22.97
2023-02-03T16:22:05.676Z,23.13
2023-02-03T16:24:32.986Z,27.63
2023-02-03T16:27:19.331Z,43.03
2023-02-03T16:30:05.575Z,27.40
2023-02-03T16:32:51.494Z,29.77
2023-02-03T16:35:37.504Z,20.73
2023-02-03T16:38:27.589Z,21.47
2023-02-03T16:41:13.351Z,21.83
2023-02-03T16:43:59.358Z,23.97
2023-02-03T16:46:45.524Z,19.53
2023-02-03T16:49:31.280Z,17.03
2023-02-03T16:51:58.446Z,16.33
2023-02-03T16:54:28.238Z,17.83
2023-02-03T16:56:58.517Z,18.70
2023-02-03T16:59:26.119Z,10.07
2023-02-03T17:01:53.497Z,18.80
2023-02-03T17:04:20.713Z,12.83
2023-02-03T17:06:51.209Z,15.47
2023-02-03T17:09:24.872Z,21.57
2023-02-03T17:11:52.077Z,25.40
2023-02-03T17:14:19.315Z,23.73
2023-02-03T17:16:46.775Z,15.70
2023-02-03T17:19:13.989Z,18.53
2023-02-03T17:21:41.198Z,18.37
2023-02-03T17:24:08.421Z,22.10
2023-02-03T17:26:35.680Z,14.50
2023-02-03T17:29:03.597Z,15.27
2023-02-03T17:31:31.183Z,14.77
2023-02-03T17:33:58.798Z,16.33
2023-02-03T17:36:26.164Z,15.90
2023-02-03T17:55:26.479Z,10.03
2023-02-03T17:57:53.959Z,13.53
2023-02-03T18:00:21.235Z,9.47
2023-02-03T18:02:51.997Z,12.93
2023-02-03T18:05:19.216Z,11.60
2023-02-03T18:10:18.612Z,8.23
2023-02-03T18:12:45.827Z,8.50
2023-02-03T18:15:13.558Z,12.83
2023-02-03T18:17:41.408Z,14.57
2023-02-03T18:20:08.933Z,11.33
2023-02-03T18:22:36.187Z,12.70
2023-02-03T18:25:03.415Z,16.53
2023-02-03T18:27:30.584Z,18.07
2023-02-03T18:29:57.782Z,14.57
2023-02-03T18:32:24.988Z,16.67
2023-02-03T18:34:52.258Z,11.23
2023-02-03T18:37:19.454Z,13.97
2023-02-03T18:39:47.899Z,15.33
2023-02-03T18:42:15.231Z,12.97
2023-02-03T18:44:44.418Z,8.90
2023-02-03T18:47:11.628Z,15.63
2023-02-03T18:49:39.647Z,14.03
2023-02-03T18:52:07.353Z,12.83
2023-02-03T18:54:34.597Z,16.00
2023-02-03T18:57:03.054Z,13.43
2023-02-03T18:59:30.736Z,14.47
2023-02-03T19:01:58.229Z,10.90
2023-02-03T19:04:25.385Z,9.90
2023-02-03T19:06:52.796Z,9.87
2023-02-03T19:09:22.242Z,12.37
2023-02-03T19:11:49.771Z,12.00
2023-02-03T19:14:17.336Z,12.17
2023-02-03T19:16:44.656Z,10.40
2023-02-03T19:19:14.092Z,10.27
2023-02-03T19:21:41.379Z,10.77
2023-02-03T19:24:08.750Z,11.37
2023-02-03T19:26:36.025Z,12.00
2023-02-03T19:29:03.314Z,17.23
2023-02-03T19:31:30.727Z,16.87
2023-02-03T19:33:59.916Z,23.63
2023-02-03T19:36:30.817Z,22.23
2023-02-03T19:38:58.234Z,21.60
2023-02-03T19:41:26.315Z,22.10
2023-02-03T19:43:53.626Z,19.67
2023-02-03T19:46:21.963Z,14.63
2023-02-03T19:48:49.515Z,8.10
2023-02-03T19:51:17.464Z,12.20
2023-02-03T19:53:44.883Z,10.07
2023-02-03T19:56:12.436Z,7.37
2023-02-03T19:58:39.848Z,9.33
2023-02-03T20:01:07.670Z,11.30
2023-02-03T20:03:35.083Z,12.63
2023-02-03T20:06:02.340Z,16.17
2023-02-03T20:08:29.572Z,11.00
2023-02-03T20:10:56.885Z,10.57
2023-02-03T20:13:24.404Z,8.60
2023-02-03T20:15:52.237Z,12.40
2023-02-03T20:18:19.508Z,9.37
2023-02-03T20:20:54.349Z,8.60
2023-02-03T20:23:21.880Z,10.93
2023-02-03T20:25:50.348Z,10.03
2023-02-03T20:28:18.062Z,8.47
2023-02-03T20:30:45.337Z,11.10
2023-02-03T20:33:13.005Z,9.63
2023-02-03T20:35:40.954Z,10.77
2023-02-03T20:38:08.242Z,8.17
2023-02-03T20:40:35.691Z,5.57
2023-02-03T20:43:07.681Z,7.83
2023-02-03T20:45:34.896Z,8.63
2023-02-03T20:48:02.343Z,7.57
2023-02-03T20:50:41.553Z,7.33
2023-02-03T20:53:13.101Z,11.77
2023-02-03T20:55:40.361Z,7.77
2023-02-03T20:58:26.809Z,7.77
2023-02-03T21:00:57.430Z,7.30
2023-02-03T21:03:44.025Z,6.77
2023-02-03T21:06:18.773Z,6.40
2023-02-03T21:08:47.114Z,5.43
2023-02-03T21:11:15.565Z,5.13
2023-02-03T21:13:45.373Z,4.43
2023-02-03T21:16:19.080Z,5.47
2023-02-03T21:18:50.369Z,3.53
2023-02-03T21:21:25.083Z,3.43
2023-02-03T21:23:52.924Z,4.67
2023-02-03T21:26:21.546Z,7.30
2023-02-03T21:28:53.200Z,3.73
2023-02-03T21:31:25.249Z,3.53
2023-02-03T21:33:53.864Z,4.47
2023-02-03T21:36:22.491Z,5.30
2023-02-03T21:38:50.804Z,5.80
2023-02-03T21:41:19.137Z,2.70
2023-02-03T21:43:47.189Z,3.13
2023-02-03T21:46:33.847Z,3.00
2023-02-03T21:49:02.190Z,2.90
2023-02-03T21:51:36.342Z,4.77
2023-02-03T21:54:16.008Z,4.17
2023-02-03T21:56:45.386Z,4.10
2023-02-03T21:59:23.112Z,1.17
2023-02-03T22:01:50.300Z,6.57
2023-02-03T22:04:17.465Z,4.67
2023-02-03T22:06:45.619Z,3.80
2023-02-03T22:09:13.917Z,3.77
2023-02-03T22:11:41.964Z,5.33
2023-02-03T22:14:09.440Z,5.13
2023-02-03T22:16:36.877Z,4.83
2023-02-03T22:19:04.068Z,6.23
2023-02-03T22:21:31.240Z,6.07
2023-02-03T22:23:58.876Z,4.67
2023-02-03T22:26:26.094Z,5.97
2023-02-03T22:28:53.320Z,4.20
2023-02-03T22:31:21.197Z,4.73
2023-02-03T22:33:48.684Z,4.63
2023-02-03T22:36:15.897Z,4.00
2023-02-03T22:38:43.437Z,4.50
2023-02-03T22:41:14.163Z,5.57
2023-02-03T22:43:41.542Z,4.17
2023-02-03T22:46:08.887Z,4.90
2023-02-03T22:48:36.244Z,3.33
2023-02-03T22:51:03.988Z,5.83
2023-02-03T22:53:31.426Z,4.27
2023-02-03T22:55:58.698Z,18.67
2023-02-03T22:58:25.839Z,5.73
2023-02-03T23:00:52.978Z,4.07
2023-02-03T23:03:20.243Z,5.43
2023-02-03T23:05:47.444Z,6.83
2023-02-03T23:08:14.670Z,5.87
2023-02-03T23:10:41.845Z,7.03
2023-02-03T23:13:09.112Z,6.50
2023-02-03T23:15:36.347Z,4.73
2023-02-03T23:18:03.853Z,8.10
2023-02-03T23:20:31.542Z,5.53
2023-02-03T23:22:58.911Z,6.57
2023-02-03T23:25:26.256Z,5.47
2023-02-03T23:27:53.626Z,9.20
2023-02-03T23:30:20.824Z,10.60
2023-02-03T23:32:48.017Z,17.07
2023-02-03T23:35:33.862Z,16.93
2023-02-03T23:38:01.119Z,19.40
2023-02-03T23:40:29.160Z,16.77
2023-02-03T23:42:56.859Z,18.40
2023-02-03T23:45:24.023Z,15.10
2023-02-03T23:47:51.297Z,18.00
2023-02-03T23:50:21.426Z,16.27
2023-02-03T23:52:48.960Z,17.80
2023-02-03T23:55:18.060Z,16.43
2023-02-03T23:57:45.832Z,17.20
